Aeroporto :
LOGIN :

Iscrizione | Disclaimer

   EN    FR    IT 

 










Sommario :    VFR   VFR Marginale   IFR   IFR Intensivo   IFR Molto Intensivo
Visibilità : 
Base nubi : 
>= 8 km
>= 3000ft
5 / 8 km
1000 / 3000 ft
1500m / 5 km
500 / 1000 ft
800 / 1500m
200 / 500 ft
< 800m
< 200 ft
Simboli :   Temporali  Nebbia  Neve Forte  Precipitazioni Forti  Vento > 20 kt
SIGMETs :   Varie  Temporali  Ghiacco  Turbolenza  Onda orograficha  Ceneri Vulcaniche






- Altitudine del aeroporto : -15 ft
- Codice IATA : RTM


EHRD - Rotterdam Zestienhoven

ULTIMO METAR :
  • 141225Z AUTO 24014KT 200V280 9999 NSC 08/03 Q0989 TEMPO 26018G28KT 7000 -SHRA FEW025CB

METARs OBSOLETI :
  • 141155Z AUTO 24016KT 210V270 9999 NSC 08/02 Q0989 NOSIG
  • 141125Z AUTO 25020G32KT 220V280 9999 NSC 08/02 Q0989 NOSIG
  • 141055Z AUTO 26016KT 210V290 9999 FEW034 SCT038 BKN047 08/02 Q0989 NOSIG
  • 141025Z AUTO 26020G30KT 210V290 9999 SCT032 SCT041 07/02 Q0989 NOSIG
  • 140955Z AUTO 26019G30KT 230V290 9999 FEW032 07/02 Q0988 NOSIG

TAF TAF EHRD
Valido dal 14 a 12 ore il 15 a 18 ore UTC


141121Z 1412/1518 26022G32KT 9999 SCT025
TEMPO 1412/1417 7000 -SHRA FEW020CB
PROB40
TEMPO 1413/1416 26025G37KT 4500 SHRAGS RA SCT020CB BKN025
BECMG 1418/1421 21015KT
BECMG 1502/1505 25022G33KT
TEMPO 1502/1505 26025G38KT 6000 SHRA RA SCT010 BKN014 SCT020CB
BECMG 1508/1511 22016G26KT
PROB30
TEMPO 1512/1518 23021G31KT 5000 SHRA TSRA SCT015 SCT020CB



MetMap, La meteo Aeronautica in un colpo d'occhio ! - Copyright ORBIFLY Dicembre 2007 - Disclaimer

ORBIFLY MET'MAP TEAM :

Programmazione e sviluppo : Alexandra Zaïnal
Concezione : Baudouin d'Aumeries
Aiuto per la programmazione : Marc-Olivier Méhu
Supporto tecnico e logistico : Manuel Goepfert
Aiuto per la traduzione : Arnaldo La Scala

Contatto : metmap@orbifly.com




FONTI E CREDITI :

   NOAA